sensor_id;sensor_type;location;lat;lon;timestamp;P1;durP1;ratioP1;P2;durP2;ratioP2
29700;SDS011;57917;51.380;-0.176;2022-11-14T00:05:20;23.83;;;10.80;;
29700;SDS011;57917;51.380;-0.176;2022-11-14T00:11:28;30.33;;;13.18;;
29700;SDS011;57917;51.380;-0.176;2022-11-14T00:17:35;25.13;;;11.25;;
29700;SDS011;57917;51.380;-0.176;2022-11-14T00:23:40;37.80;;;11.85;;
29700;SDS011;57917;51.380;-0.176;2022-11-14T00:29:46;24.20;;;11.18;;
29700;SDS011;57917;51.380;-0.176;2022-11-14T00:35:55;23.38;;;11.82;;
29700;SDS011;57917;51.380;-0.176;2022-11-14T00:42:00;28.40;;;12.85;;
29700;SDS011;57917;51.380;-0.176;2022-11-14T00:48:06;23.13;;;10.90;;
29700;SDS011;57917;51.380;-0.176;2022-11-14T00:54:16;26.83;;;12.05;;
29700;SDS011;57917;51.380;-0.176;2022-11-14T01:00:24;31.48;;;11.73;;
29700;SDS011;57917;51.380;-0.176;2022-11-14T01:06:29;84.35;;;14.02;;
29700;SDS011;57917;51.380;-0.176;2022-11-14T01:12:34;54.20;;;13.13;;
29700;SDS011;57917;51.380;-0.176;2022-11-14T01:18:40;122.03;;;16.23;;
29700;SDS011;57917;51.380;-0.176;2022-11-14T01:24:47;113.20;;;14.02;;
29700;SDS011;57917;51.380;-0.176;2022-11-14T01:30:53;128.27;;;14.73;;
29700;SDS011;57917;51.380;-0.176;2022-11-14T01:36:58;82.00;;;13.00;;
29700;SDS011;57917;51.380;-0.176;2022-11-14T01:43:27;35.22;;;11.68;;
29700;SDS011;57917;51.380;-0.176;2022-11-14T01:49:35;20.50;;;10.52;;
29700;SDS011;57917;51.380;-0.176;2022-11-14T01:55:43;23.00;;;10.80;;
29700;SDS011;57917;51.380;-0.176;2022-11-14T02:01:51;27.33;;;10.75;;
29700;SDS011;57917;51.380;-0.176;2022-11-14T02:07:57;22.52;;;10.93;;
29700;SDS011;57917;51.380;-0.176;2022-11-14T02:14:03;20.08;;;10.68;;
29700;SDS011;57917;51.380;-0.176;2022-11-14T02:26:16;24.45;;;11.65;;
29700;SDS011;57917;51.380;-0.176;2022-11-14T02:32:22;24.77;;;11.73;;
29700;SDS011;57917;51.380;-0.176;2022-11-14T02:38:28;28.25;;;11.88;;
29700;SDS011;57917;51.380;-0.176;2022-11-14T02:44:34;26.42;;;12.65;;
29700;SDS011;57917;51.380;-0.176;2022-11-14T02:50:39;24.77;;;10.77;;
29700;SDS011;57917;51.380;-0.176;2022-11-14T02:56:45;22.70;;;11.35;;
29700;SDS011;57917;51.380;-0.176;2022-11-14T03:02:51;25.17;;;11.57;;
29700;SDS011;57917;51.380;-0.176;2022-11-14T03:08:57;23.15;;;11.10;;
29700;SDS011;57917;51.380;-0.176;2022-11-14T03:15:05;21.50;;;10.25;;
29700;SDS011;57917;51.380;-0.176;2022-11-14T03:21:12;19.88;;;10.00;;
29700;SDS011;57917;51.380;-0.176;2022-11-14T03:27:22;24.27;;;10.60;;
29700;SDS011;57917;51.380;-0.176;2022-11-14T03:33:28;18.60;;;9.57;;
29700;SDS011;57917;51.380;-0.176;2022-11-14T03:39:34;21.15;;;9.70;;
29700;SDS011;57917;51.380;-0.176;2022-11-14T03:45:40;18.80;;;9.50;;
29700;SDS011;57917;51.380;-0.176;2022-11-14T03:51:45;17.48;;;9.27;;
29700;SDS011;57917;51.380;-0.176;2022-11-14T03:57:50;18.63;;;10.35;;
29700;SDS011;57917;51.380;-0.176;2022-11-14T04:03:57;20.33;;;8.80;;
29700;SDS011;57917;51.380;-0.176;2022-11-14T04:10:02;18.27;;;8.98;;
29700;SDS011;57917;51.380;-0.176;2022-11-14T04:16:07;20.45;;;8.43;;
29700;SDS011;57917;51.380;-0.176;2022-11-14T04:22:13;14.77;;;7.53;;
29700;SDS011;57917;51.380;-0.176;2022-11-14T04:28:18;14.90;;;7.15;;
29700;SDS011;57917;51.380;-0.176;2022-11-14T04:34:23;15.90;;;7.43;;
29700;SDS011;57917;51.380;-0.176;2022-11-14T04:40:29;14.60;;;7.43;;
29700;SDS011;57917;51.380;-0.176;2022-11-14T04:46:34;17.95;;;6.80;;
29700;SDS011;57917;51.380;-0.176;2022-11-14T04:52:39;14.50;;;6.53;;
29700;SDS011;57917;51.380;-0.176;2022-11-14T04:58:45;18.10;;;7.72;;
29700;SDS011;57917;51.380;-0.176;2022-11-14T05:04:50;21.95;;;9.38;;
29700;SDS011;57917;51.380;-0.176;2022-11-14T05:10:56;19.95;;;9.35;;
29700;SDS011;57917;51.380;-0.176;2022-11-14T05:17:01;15.43;;;7.90;;
29700;SDS011;57917;51.380;-0.176;2022-11-14T05:23:12;21.77;;;9.00;;
29700;SDS011;57917;51.380;-0.176;2022-11-14T05:29:24;18.02;;;8.50;;
29700;SDS011;57917;51.380;-0.176;2022-11-14T05:35:29;19.02;;;8.38;;
29700;SDS011;57917;51.380;-0.176;2022-11-14T05:41:34;18.90;;;8.13;;
29700;SDS011;57917;51.380;-0.176;2022-11-14T05:47:42;19.88;;;9.13;;
29700;SDS011;57917;51.380;-0.176;2022-11-14T05:53:48;17.70;;;8.18;;
29700;SDS011;57917;51.380;-0.176;2022-11-14T05:59:53;18.58;;;8.18;;
29700;SDS011;57917;51.380;-0.176;2022-11-14T06:06:01;25.33;;;8.90;;
29700;SDS011;57917;51.380;-0.176;2022-11-14T06:12:08;13.15;;;8.00;;
29700;SDS011;57917;51.380;-0.176;2022-11-14T06:18:13;15.48;;;8.02;;
29700;SDS011;57917;51.380;-0.176;2022-11-14T06:24:21;20.15;;;9.07;;
29700;SDS011;57917;51.380;-0.176;2022-11-14T06:30:26;18.58;;;8.93;;
29700;SDS011;57917;51.380;-0.176;2022-11-14T06:36:32;22.38;;;9.43;;
29700;SDS011;57917;51.380;-0.176;2022-11-14T06:42:37;27.13;;;10.55;;
29700;SDS011;57917;51.380;-0.176;2022-11-14T06:48:43;28.75;;;11.57;;
29700;SDS011;57917;51.380;-0.176;2022-11-14T06:54:49;17.58;;;8.63;;
29700;SDS011;57917;51.380;-0.176;2022-11-14T07:00:54;15.95;;;8.98;;
29700;SDS011;57917;51.380;-0.176;2022-11-14T07:07:00;17.02;;;8.82;;
29700;SDS011;57917;51.380;-0.176;2022-11-14T07:13:07;18.35;;;9.30;;
29700;SDS011;57917;51.380;-0.176;2022-11-14T07:19:15;24.05;;;11.50;;
29700;SDS011;57917;51.380;-0.176;2022-11-14T07:25:20;23.73;;;10.77;;
29700;SDS011;57917;51.380;-0.176;2022-11-14T07:31:27;16.48;;;9.40;;
29700;SDS011;57917;51.380;-0.176;2022-11-14T07:37:45;23.20;;;9.95;;
29700;SDS011;57917;51.380;-0.176;2022-11-14T07:43:55;46.53;;;14.10;;
29700;SDS011;57917;51.380;-0.176;2022-11-14T07:50:05;26.23;;;11.43;;
29700;SDS011;57917;51.380;-0.176;2022-11-14T07:56:23;26.17;;;10.93;;
29700;SDS011;57917;51.380;-0.176;2022-11-14T08:11:07;30.77;;;12.13;;
29700;SDS011;57917;51.380;-0.176;2022-11-14T08:18:11;35.25;;;10.68;;
29700;SDS011;57917;51.380;-0.176;2022-11-14T08:24:50;35.70;;;12.40;;
29700;SDS011;57917;51.380;-0.176;2022-11-14T08:31:02;35.10;;;12.40;;
29700;SDS011;57917;51.380;-0.176;2022-11-14T08:44:20;46.17;;;14.30;;
29700;SDS011;57917;51.380;-0.176;2022-11-14T08:50:28;70.63;;;14.90;;
29700;SDS011;57917;51.380;-0.176;2022-11-14T08:57:20;44.85;;;13.75;;
29700;SDS011;57917;51.380;-0.176;2022-11-14T09:03:54;45.90;;;13.63;;
29700;SDS011;57917;51.380;-0.176;2022-11-14T09:10:08;41.35;;;13.65;;
29700;SDS011;57917;51.380;-0.176;2022-11-14T09:16:38;40.22;;;13.27;;
29700;SDS011;57917;51.380;-0.176;2022-11-14T09:23:50;59.47;;;13.37;;
29700;SDS011;57917;51.380;-0.176;2022-11-14T09:30:03;45.97;;;13.18;;
29700;SDS011;57917;51.380;-0.176;2022-11-14T09:36:30;35.22;;;12.95;;
29700;SDS011;57917;51.380;-0.176;2022-11-14T09:42:53;42.40;;;14.13;;
29700;SDS011;57917;51.380;-0.176;2022-11-14T09:56:29;38.08;;;14.70;;
29700;SDS011;57917;51.380;-0.176;2022-11-14T10:02:39;38.45;;;13.68;;
29700;SDS011;57917;51.380;-0.176;2022-11-14T10:09:18;42.05;;;14.70;;
29700;SDS011;57917;51.380;-0.176;2022-11-14T10:35:34;35.20;;;12.38;;
29700;SDS011;57917;51.380;-0.176;2022-11-14T10:41:45;27.42;;;9.93;;
29700;SDS011;57917;51.380;-0.176;2022-11-14T10:48:13;23.60;;;9.85;;
29700;SDS011;57917;51.380;-0.176;2022-11-14T10:54:35;30.15;;;12.30;;
29700;SDS011;57917;51.380;-0.176;2022-11-14T11:00:52;27.20;;;10.38;;
29700;SDS011;57917;51.380;-0.176;2022-11-14T11:21:21;25.42;;;11.25;;
29700;SDS011;57917;51.380;-0.176;2022-11-14T11:27:28;26.52;;;10.93;;
29700;SDS011;57917;51.380;-0.176;2022-11-14T11:33:35;25.90;;;11.15;;
29700;SDS011;57917;51.380;-0.176;2022-11-14T11:39:47;23.27;;;10.95;;
29700;SDS011;57917;51.380;-0.176;2022-11-14T11:45:59;22.42;;;10.07;;
29700;SDS011;57917;51.380;-0.176;2022-11-14T11:52:12;24.35;;;10.90;;
29700;SDS011;57917;51.380;-0.176;2022-11-14T11:58:46;23.42;;;10.25;;
29700;SDS011;57917;51.380;-0.176;2022-11-14T12:04:54;21.58;;;10.23;;
29700;SDS011;57917;51.380;-0.176;2022-11-14T12:11:01;28.45;;;9.95;;
29700;SDS011;57917;51.380;-0.176;2022-11-14T12:38:03;20.00;;;9.50;;
29700;SDS011;57917;51.380;-0.176;2022-11-14T12:44:44;23.55;;;10.65;;
29700;SDS011;57917;51.380;-0.176;2022-11-14T13:04:23;24.88;;;10.55;;
29700;SDS011;57917;51.380;-0.176;2022-11-14T13:11:47;29.25;;;9.85;;
29700;SDS011;57917;51.380;-0.176;2022-11-14T13:53:45;21.73;;;9.85;;
29700;SDS011;57917;51.380;-0.176;2022-11-14T14:00:15;23.33;;;10.88;;
29700;SDS011;57917;51.380;-0.176;2022-11-14T14:32:17;25.38;;;11.57;;
29700;SDS011;57917;51.380;-0.176;2022-11-14T14:45:50;22.42;;;9.45;;
29700;SDS011;57917;51.380;-0.176;2022-11-14T14:52:45;19.30;;;9.57;;
29700;SDS011;57917;51.380;-0.176;2022-11-14T14:59:24;18.98;;;9.25;;
29700;SDS011;57917;51.380;-0.176;2022-11-14T15:05:41;20.92;;;10.88;;
29700;SDS011;57917;51.380;-0.176;2022-11-14T15:11:55;24.13;;;9.63;;
29700;SDS011;57917;51.380;-0.176;2022-11-14T15:19:03;24.53;;;10.23;;
29700;SDS011;57917;51.380;-0.176;2022-11-14T15:40:34;17.63;;;10.45;;
29700;SDS011;57917;51.380;-0.176;2022-11-14T15:46:46;31.40;;;11.05;;
29700;SDS011;57917;51.380;-0.176;2022-11-14T15:59:53;32.15;;;14.45;;
29700;SDS011;57917;51.380;-0.176;2022-11-14T16:05:58;38.20;;;14.52;;
29700;SDS011;57917;51.380;-0.176;2022-11-14T16:12:06;30.50;;;13.85;;
29700;SDS011;57917;51.380;-0.176;2022-11-14T16:18:11;29.73;;;13.40;;
29700;SDS011;57917;51.380;-0.176;2022-11-14T16:24:19;30.50;;;13.55;;
29700;SDS011;57917;51.380;-0.176;2022-11-14T16:30:33;30.15;;;13.38;;
29700;SDS011;57917;51.380;-0.176;2022-11-14T16:42:44;30.58;;;11.13;;
29700;SDS011;57917;51.380;-0.176;2022-11-14T16:48:50;21.92;;;10.25;;
29700;SDS011;57917;51.380;-0.176;2022-11-14T16:54:56;20.30;;;10.32;;
29700;SDS011;57917;51.380;-0.176;2022-11-14T17:01:02;29.45;;;10.05;;
29700;SDS011;57917;51.380;-0.176;2022-11-14T17:07:19;23.88;;;11.13;;
29700;SDS011;57917;51.380;-0.176;2022-11-14T17:13:27;31.70;;;11.50;;
29700;SDS011;57917;51.380;-0.176;2022-11-14T17:19:36;25.20;;;11.05;;
29700;SDS011;57917;51.380;-0.176;2022-11-14T17:26:11;20.17;;;10.15;;
29700;SDS011;57917;51.380;-0.176;2022-11-14T17:39:07;20.52;;;9.02;;
29700;SDS011;57917;51.380;-0.176;2022-11-14T17:45:41;18.30;;;8.30;;
29700;SDS011;57917;51.380;-0.176;2022-11-14T17:52:01;14.25;;;7.50;;
29700;SDS011;57917;51.380;-0.176;2022-11-14T17:58:28;21.20;;;7.75;;
29700;SDS011;57917;51.380;-0.176;2022-11-14T18:04:35;24.75;;;8.32;;
29700;SDS011;57917;51.380;-0.176;2022-11-14T18:10:43;17.60;;;8.05;;
29700;SDS011;57917;51.380;-0.176;2022-11-14T18:17:04;22.00;;;8.75;;
29700;SDS011;57917;51.380;-0.176;2022-11-14T18:23:31;20.08;;;7.38;;
29700;SDS011;57917;51.380;-0.176;2022-11-14T18:29:40;33.25;;;10.52;;
29700;SDS011;57917;51.380;-0.176;2022-11-14T18:35:59;10.98;;;6.90;;
29700;SDS011;57917;51.380;-0.176;2022-11-14T18:42:13;25.73;;;9.32;;
29700;SDS011;57917;51.380;-0.176;2022-11-14T18:48:20;22.55;;;9.88;;
29700;SDS011;57917;51.380;-0.176;2022-11-14T18:54:30;29.58;;;9.57;;
29700;SDS011;57917;51.380;-0.176;2022-11-14T19:00:39;35.00;;;13.10;;
29700;SDS011;57917;51.380;-0.176;2022-11-14T19:06:57;20.70;;;9.60;;
29700;SDS011;57917;51.380;-0.176;2022-11-14T19:13:13;20.58;;;8.23;;
29700;SDS011;57917;51.380;-0.176;2022-11-14T19:19:44;21.02;;;7.50;;
29700;SDS011;57917;51.380;-0.176;2022-11-14T19:25:51;15.88;;;6.10;;
29700;SDS011;57917;51.380;-0.176;2022-11-14T19:32:06;12.37;;;5.77;;
29700;SDS011;57917;51.380;-0.176;2022-11-14T19:38:28;5.20;;;3.53;;
29700;SDS011;57917;51.380;-0.176;2022-11-14T19:44:37;7.28;;;4.03;;
29700;SDS011;57917;51.380;-0.176;2022-11-14T19:50:42;16.55;;;6.50;;
29700;SDS011;57917;51.380;-0.176;2022-11-14T19:56:48;7.72;;;3.90;;
29700;SDS011;57917;51.380;-0.176;2022-11-14T20:02:54;8.32;;;3.47;;
29700;SDS011;57917;51.380;-0.176;2022-11-14T20:09:08;8.57;;;3.80;;
29700;SDS011;57917;51.380;-0.176;2022-11-14T20:15:14;190.98;;;13.68;;
29700;SDS011;57917;51.380;-0.176;2022-11-14T20:21:27;12.20;;;5.82;;
29700;SDS011;57917;51.380;-0.176;2022-11-14T20:27:35;65.97;;;9.65;;
29700;SDS011;57917;51.380;-0.176;2022-11-14T20:33:42;36.67;;;5.28;;
29700;SDS011;57917;51.380;-0.176;2022-11-14T20:39:52;3.45;;;2.03;;
29700;SDS011;57917;51.380;-0.176;2022-11-14T20:52:03;2.33;;;1.48;;
29700;SDS011;57917;51.380;-0.176;2022-11-14T20:58:09;9.68;;;1.70;;
29700;SDS011;57917;51.380;-0.176;2022-11-14T21:04:14;1.80;;;1.02;;
29700;SDS011;57917;51.380;-0.176;2022-11-14T21:10:21;2.03;;;1.10;;
29700;SDS011;57917;51.380;-0.176;2022-11-14T21:16:47;0.85;;;0.70;;
29700;SDS011;57917;51.380;-0.176;2022-11-14T21:22:55;1.00;;;0.75;;
29700;SDS011;57917;51.380;-0.176;2022-11-14T21:29:04;1.02;;;0.77;;
29700;SDS011;57917;51.380;-0.176;2022-11-14T21:35:18;2.47;;;1.52;;
29700;SDS011;57917;51.380;-0.176;2022-11-14T21:41:30;2.63;;;1.30;;
29700;SDS011;57917;51.380;-0.176;2022-11-14T21:47:43;1.35;;;0.80;;
29700;SDS011;57917;51.380;-0.176;2022-11-14T21:54:02;3.65;;;1.08;;
29700;SDS011;57917;51.380;-0.176;2022-11-14T22:08:25;6.25;;;1.08;;
29700;SDS011;57917;51.380;-0.176;2022-11-14T22:14:50;4.78;;;0.80;;
29700;SDS011;57917;51.380;-0.176;2022-11-14T22:28:12;6.55;;;1.63;;
29700;SDS011;57917;51.380;-0.176;2022-11-14T22:34:43;4.43;;;1.13;;
29700;SDS011;57917;51.380;-0.176;2022-11-14T22:41:11;8.18;;;0.90;;
29700;SDS011;57917;51.380;-0.176;2022-11-14T22:47:41;3.80;;;1.13;;
29700;SDS011;57917;51.380;-0.176;2022-11-14T22:53:50;7.70;;;1.20;;
29700;SDS011;57917;51.380;-0.176;2022-11-14T23:00:24;9.73;;;1.00;;
29700;SDS011;57917;51.380;-0.176;2022-11-14T23:06:26;2.08;;;0.90;;
29700;SDS011;57917;51.380;-0.176;2022-11-14T23:12:32;2.90;;;0.80;;
29700;SDS011;57917;51.380;-0.176;2022-11-14T23:18:38;4.85;;;0.70;;
29700;SDS011;57917;51.380;-0.176;2022-11-14T23:24:46;7.65;;;1.10;;
29700;SDS011;57917;51.380;-0.176;2022-11-14T23:30:54;11.30;;;1.35;;
29700;SDS011;57917;51.380;-0.176;2022-11-14T23:36:59;11.75;;;1.20;;
29700;SDS011;57917;51.380;-0.176;2022-11-14T23:43:04;5.72;;;0.90;;
29700;SDS011;57917;51.380;-0.176;2022-11-14T23:49:10;6.65;;;0.80;;
29700;SDS011;57917;51.380;-0.176;2022-11-14T23:55:15;10.18;;;1.00;;
